sensor_id;sensor_type;location;lat;lon;timestamp;P1;durP1;ratioP1;P2;durP2;ratioP2
81215;SDS011;70688;52.492;13.420;2023-08-01T00:02:05;9.80;;;5.03;;
81215;SDS011;70688;52.492;13.420;2023-08-01T00:04:31;12.45;;;5.10;;
81215;SDS011;70688;52.492;13.420;2023-08-01T00:06:57;10.70;;;6.15;;
81215;SDS011;70688;52.492;13.420;2023-08-01T00:09:22;11.98;;;7.85;;
81215;SDS011;70688;52.492;13.420;2023-08-01T00:11:48;9.43;;;5.00;;
81215;SDS011;70688;52.492;13.420;2023-08-01T00:14:13;10.18;;;5.18;;
81215;SDS011;70688;52.492;13.420;2023-08-01T00:16:39;10.85;;;5.82;;
81215;SDS011;70688;52.492;13.420;2023-08-01T00:19:05;11.07;;;6.28;;
81215;SDS011;70688;52.492;13.420;2023-08-01T00:21:30;12.38;;;6.55;;
81215;SDS011;70688;52.492;13.420;2023-08-01T00:23:57;10.00;;;5.30;;
81215;SDS011;70688;52.492;13.420;2023-08-01T00:26:22;11.05;;;5.45;;
81215;SDS011;70688;52.492;13.420;2023-08-01T00:28:48;7.32;;;4.85;;
81215;SDS011;70688;52.492;13.420;2023-08-01T00:31:14;12.10;;;5.05;;
81215;SDS011;70688;52.492;13.420;2023-08-01T00:33:39;11.18;;;5.28;;
81215;SDS011;70688;52.492;13.420;2023-08-01T00:36:05;14.98;;;5.28;;
81215;SDS011;70688;52.492;13.420;2023-08-01T00:38:36;9.32;;;4.57;;
81215;SDS011;70688;52.492;13.420;2023-08-01T00:41:02;10.65;;;4.60;;
81215;SDS011;70688;52.492;13.420;2023-08-01T00:43:28;7.18;;;4.25;;
81215;SDS011;70688;52.492;13.420;2023-08-01T00:45:55;7.97;;;4.28;;
81215;SDS011;70688;52.492;13.420;2023-08-01T00:48:25;7.85;;;4.10;;
81215;SDS011;70688;52.492;13.420;2023-08-01T00:50:50;8.93;;;4.03;;
81215;SDS011;70688;52.492;13.420;2023-08-01T00:53:17;9.68;;;5.60;;
81215;SDS011;70688;52.492;13.420;2023-08-01T00:55:43;7.47;;;3.57;;
81215;SDS011;70688;52.492;13.420;2023-08-01T00:58:09;7.30;;;4.13;;
81215;SDS011;70688;52.492;13.420;2023-08-01T01:00:35;7.00;;;4.13;;
81215;SDS011;70688;52.492;13.420;2023-08-01T01:03:01;5.97;;;4.03;;
81215;SDS011;70688;52.492;13.420;2023-08-01T01:05:27;8.13;;;4.00;;
81215;SDS011;70688;52.492;13.420;2023-08-01T01:07:59;6.05;;;3.67;;
81215;SDS011;70688;52.492;13.420;2023-08-01T01:10:25;9.07;;;4.32;;
81215;SDS011;70688;52.492;13.420;2023-08-01T01:12:51;6.38;;;3.78;;
81215;SDS011;70688;52.492;13.420;2023-08-01T01:15:16;6.82;;;3.92;;
81215;SDS011;70688;52.492;13.420;2023-08-01T01:17:42;6.28;;;4.03;;
81215;SDS011;70688;52.492;13.420;2023-08-01T01:20:07;10.38;;;5.40;;
81215;SDS011;70688;52.492;13.420;2023-08-01T01:22:33;7.50;;;4.55;;
81215;SDS011;70688;52.492;13.420;2023-08-01T01:25:00;9.23;;;4.32;;
81215;SDS011;70688;52.492;13.420;2023-08-01T01:27:28;7.40;;;4.75;;
81215;SDS011;70688;52.492;13.420;2023-08-01T01:29:54;8.40;;;4.93;;
81215;SDS011;70688;52.492;13.420;2023-08-01T01:32:20;10.25;;;4.82;;
81215;SDS011;70688;52.492;13.420;2023-08-01T01:34:47;7.05;;;4.45;;
81215;SDS011;70688;52.492;13.420;2023-08-01T01:37:12;7.85;;;4.65;;
81215;SDS011;70688;52.492;13.420;2023-08-01T01:39:38;10.85;;;6.18;;
81215;SDS011;70688;52.492;13.420;2023-08-01T01:42:04;8.43;;;4.50;;
81215;SDS011;70688;52.492;13.420;2023-08-01T01:44:30;11.85;;;5.60;;
81215;SDS011;70688;52.492;13.420;2023-08-01T01:46:56;7.10;;;4.80;;
81215;SDS011;70688;52.492;13.420;2023-08-01T01:49:21;10.70;;;4.90;;
81215;SDS011;70688;52.492;13.420;2023-08-01T01:51:47;7.75;;;4.75;;
81215;SDS011;70688;52.492;13.420;2023-08-01T01:54:12;11.00;;;5.10;;
81215;SDS011;70688;52.492;13.420;2023-08-01T01:56:38;10.13;;;5.60;;
81215;SDS011;70688;52.492;13.420;2023-08-01T01:59:04;11.32;;;5.90;;
81215;SDS011;70688;52.492;13.420;2023-08-01T02:01:29;11.38;;;5.57;;
81215;SDS011;70688;52.492;13.420;2023-08-01T02:03:55;8.48;;;5.18;;
81215;SDS011;70688;52.492;13.420;2023-08-01T02:06:20;14.77;;;6.13;;
81215;SDS011;70688;52.492;13.420;2023-08-01T02:08:46;11.27;;;5.68;;
81215;SDS011;70688;52.492;13.420;2023-08-01T02:11:12;9.63;;;5.15;;
81215;SDS011;70688;52.492;13.420;2023-08-01T02:13:37;8.57;;;5.30;;
81215;SDS011;70688;52.492;13.420;2023-08-01T02:16:03;8.95;;;5.68;;
81215;SDS011;70688;52.492;13.420;2023-08-01T02:18:28;10.20;;;6.10;;
81215;SDS011;70688;52.492;13.420;2023-08-01T02:20:54;10.07;;;5.90;;
81215;SDS011;70688;52.492;13.420;2023-08-01T02:23:19;10.32;;;5.13;;
81215;SDS011;70688;52.492;13.420;2023-08-01T02:25:45;9.18;;;5.72;;
81215;SDS011;70688;52.492;13.420;2023-08-01T02:28:11;7.55;;;5.80;;
81215;SDS011;70688;52.492;13.420;2023-08-01T02:30:37;8.05;;;5.57;;
81215;SDS011;70688;52.492;13.420;2023-08-01T02:33:03;11.43;;;5.90;;
81215;SDS011;70688;52.492;13.420;2023-08-01T02:35:29;10.07;;;5.65;;
81215;SDS011;70688;52.492;13.420;2023-08-01T02:37:56;11.13;;;6.37;;
81215;SDS011;70688;52.492;13.420;2023-08-01T02:40:21;11.15;;;6.05;;
81215;SDS011;70688;52.492;13.420;2023-08-01T02:42:47;9.07;;;6.07;;
81215;SDS011;70688;52.492;13.420;2023-08-01T02:45:13;10.85;;;6.22;;
81215;SDS011;70688;52.492;13.420;2023-08-01T02:47:38;10.60;;;6.07;;
81215;SDS011;70688;52.492;13.420;2023-08-01T02:50:04;8.57;;;5.97;;
81215;SDS011;70688;52.492;13.420;2023-08-01T02:52:30;11.20;;;6.30;;
81215;SDS011;70688;52.492;13.420;2023-08-01T02:54:56;8.93;;;6.25;;
81215;SDS011;70688;52.492;13.420;2023-08-01T02:57:23;8.90;;;6.50;;
81215;SDS011;70688;52.492;13.420;2023-08-01T02:59:49;12.35;;;6.47;;
81215;SDS011;70688;52.492;13.420;2023-08-01T03:02:14;11.10;;;5.80;;
81215;SDS011;70688;52.492;13.420;2023-08-01T03:04:40;11.35;;;6.07;;
81215;SDS011;70688;52.492;13.420;2023-08-01T03:07:05;10.38;;;5.55;;
81215;SDS011;70688;52.492;13.420;2023-08-01T03:09:34;11.60;;;6.22;;
81215;SDS011;70688;52.492;13.420;2023-08-01T03:12:00;12.10;;;6.13;;
81215;SDS011;70688;52.492;13.420;2023-08-01T03:14:25;10.52;;;6.07;;
81215;SDS011;70688;52.492;13.420;2023-08-01T03:16:51;9.32;;;5.85;;
81215;SDS011;70688;52.492;13.420;2023-08-01T03:19:16;10.07;;;6.20;;
81215;SDS011;70688;52.492;13.420;2023-08-01T03:21:42;8.40;;;6.00;;
81215;SDS011;70688;52.492;13.420;2023-08-01T03:24:07;10.30;;;5.78;;
81215;SDS011;70688;52.492;13.420;2023-08-01T03:26:33;10.80;;;5.78;;
81215;SDS011;70688;52.492;13.420;2023-08-01T03:29:02;11.52;;;5.60;;
81215;SDS011;70688;52.492;13.420;2023-08-01T03:31:28;11.15;;;5.97;;
81215;SDS011;70688;52.492;13.420;2023-08-01T03:33:54;11.18;;;6.05;;
81215;SDS011;70688;52.492;13.420;2023-08-01T03:36:20;11.90;;;5.93;;
81215;SDS011;70688;52.492;13.420;2023-08-01T03:38:45;13.70;;;5.97;;
81215;SDS011;70688;52.492;13.420;2023-08-01T03:41:11;10.90;;;5.82;;
81215;SDS011;70688;52.492;13.420;2023-08-01T03:43:37;11.07;;;6.13;;
81215;SDS011;70688;52.492;13.420;2023-08-01T03:46:03;12.27;;;6.38;;
81215;SDS011;70688;52.492;13.420;2023-08-01T03:48:28;10.82;;;5.50;;
81215;SDS011;70688;52.492;13.420;2023-08-01T03:50:54;10.43;;;5.30;;
81215;SDS011;70688;52.492;13.420;2023-08-01T03:53:19;12.88;;;5.90;;
81215;SDS011;70688;52.492;13.420;2023-08-01T03:55:46;9.57;;;5.22;;
81215;SDS011;70688;52.492;13.420;2023-08-01T03:58:12;11.82;;;6.20;;
81215;SDS011;70688;52.492;13.420;2023-08-01T04:00:37;9.20;;;5.40;;
81215;SDS011;70688;52.492;13.420;2023-08-01T04:03:03;9.70;;;5.60;;
81215;SDS011;70688;52.492;13.420;2023-08-01T04:05:28;9.50;;;5.30;;
81215;SDS011;70688;52.492;13.420;2023-08-01T04:07:54;9.43;;;5.03;;
81215;SDS011;70688;52.492;13.420;2023-08-01T04:10:22;10.35;;;5.20;;
81215;SDS011;70688;52.492;13.420;2023-08-01T04:12:48;11.73;;;5.10;;
81215;SDS011;70688;52.492;13.420;2023-08-01T04:15:14;10.25;;;5.60;;
81215;SDS011;70688;52.492;13.420;2023-08-01T04:17:39;12.15;;;5.47;;
81215;SDS011;70688;52.492;13.420;2023-08-01T04:20:05;8.10;;;4.57;;
81215;SDS011;70688;52.492;13.420;2023-08-01T04:22:31;9.50;;;5.15;;
81215;SDS011;70688;52.492;13.420;2023-08-01T04:24:57;9.85;;;5.15;;
81215;SDS011;70688;52.492;13.420;2023-08-01T04:27:22;8.57;;;4.85;;
81215;SDS011;70688;52.492;13.420;2023-08-01T04:29:48;9.82;;;5.25;;
81215;SDS011;70688;52.492;13.420;2023-08-01T04:32:14;8.68;;;4.78;;
81215;SDS011;70688;52.492;13.420;2023-08-01T04:34:40;7.20;;;4.97;;
81215;SDS011;70688;52.492;13.420;2023-08-01T04:37:06;8.32;;;4.50;;
81215;SDS011;70688;52.492;13.420;2023-08-01T04:39:32;8.77;;;4.60;;
81215;SDS011;70688;52.492;13.420;2023-08-01T04:41:58;9.90;;;5.78;;
81215;SDS011;70688;52.492;13.420;2023-08-01T04:44:24;10.45;;;5.50;;
81215;SDS011;70688;52.492;13.420;2023-08-01T04:46:49;7.13;;;4.85;;
81215;SDS011;70688;52.492;13.420;2023-08-01T04:49:15;7.60;;;4.70;;
81215;SDS011;70688;52.492;13.420;2023-08-01T04:51:40;8.88;;;4.53;;
81215;SDS011;70688;52.492;13.420;2023-08-01T04:54:06;6.60;;;4.28;;
81215;SDS011;70688;52.492;13.420;2023-08-01T04:56:32;6.97;;;4.50;;
81215;SDS011;70688;52.492;13.420;2023-08-01T04:58:57;10.50;;;5.90;;
81215;SDS011;70688;52.492;13.420;2023-08-01T05:01:23;11.20;;;5.03;;
81215;SDS011;70688;52.492;13.420;2023-08-01T05:03:48;8.50;;;4.78;;
81215;SDS011;70688;52.492;13.420;2023-08-01T05:06:14;12.98;;;5.20;;
81215;SDS011;70688;52.492;13.420;2023-08-01T05:08:40;7.72;;;5.30;;
81215;SDS011;70688;52.492;13.420;2023-08-01T05:11:05;7.40;;;4.90;;
81215;SDS011;70688;52.492;13.420;2023-08-01T05:13:31;9.98;;;5.20;;
81215;SDS011;70688;52.492;13.420;2023-08-01T05:15:56;6.88;;;4.75;;
81215;SDS011;70688;52.492;13.420;2023-08-01T05:18:22;9.50;;;5.65;;
81215;SDS011;70688;52.492;13.420;2023-08-01T05:20:48;7.47;;;4.90;;
81215;SDS011;70688;52.492;13.420;2023-08-01T05:23:13;9.50;;;5.07;;
81215;SDS011;70688;52.492;13.420;2023-08-01T05:25:39;10.27;;;4.60;;
81215;SDS011;70688;52.492;13.420;2023-08-01T05:28:04;7.50;;;4.50;;
81215;SDS011;70688;52.492;13.420;2023-08-01T05:30:30;8.68;;;4.85;;
81215;SDS011;70688;52.492;13.420;2023-08-01T05:32:55;8.85;;;4.90;;
81215;SDS011;70688;52.492;13.420;2023-08-01T05:35:21;7.10;;;4.32;;
81215;SDS011;70688;52.492;13.420;2023-08-01T05:37:47;9.35;;;5.63;;
81215;SDS011;70688;52.492;13.420;2023-08-01T05:40:12;8.40;;;4.45;;
81215;SDS011;70688;52.492;13.420;2023-08-01T05:42:38;6.78;;;4.45;;
81215;SDS011;70688;52.492;13.420;2023-08-01T05:45:04;8.70;;;4.82;;
81215;SDS011;70688;52.492;13.420;2023-08-01T05:47:30;7.03;;;4.53;;
81215;SDS011;70688;52.492;13.420;2023-08-01T05:49:56;7.53;;;4.60;;
81215;SDS011;70688;52.492;13.420;2023-08-01T05:52:21;7.88;;;4.60;;
81215;SDS011;70688;52.492;13.420;2023-08-01T05:54:47;8.55;;;4.32;;
81215;SDS011;70688;52.492;13.420;2023-08-01T05:57:13;8.18;;;4.28;;
81215;SDS011;70688;52.492;13.420;2023-08-01T05:59:39;6.13;;;4.32;;
81215;SDS011;70688;52.492;13.420;2023-08-01T06:02:05;7.28;;;4.45;;
81215;SDS011;70688;52.492;13.420;2023-08-01T06:04:31;8.80;;;4.78;;
81215;SDS011;70688;52.492;13.420;2023-08-01T06:06:57;7.57;;;4.80;;
81215;SDS011;70688;52.492;13.420;2023-08-01T06:09:23;8.18;;;4.47;;
81215;SDS011;70688;52.492;13.420;2023-08-01T06:11:49;9.70;;;4.13;;
81215;SDS011;70688;52.492;13.420;2023-08-01T06:14:16;7.28;;;4.30;;
81215;SDS011;70688;52.492;13.420;2023-08-01T06:16:41;6.47;;;4.03;;
81215;SDS011;70688;52.492;13.420;2023-08-01T06:19:07;8.68;;;4.43;;
81215;SDS011;70688;52.492;13.420;2023-08-01T06:21:33;7.25;;;4.22;;
81215;SDS011;70688;52.492;13.420;2023-08-01T06:23:58;6.13;;;4.22;;
81215;SDS011;70688;52.492;13.420;2023-08-01T06:26:24;7.90;;;4.20;;
81215;SDS011;70688;52.492;13.420;2023-08-01T06:28:50;8.90;;;4.50;;
81215;SDS011;70688;52.492;13.420;2023-08-01T06:31:18;6.22;;;3.75;;
81215;SDS011;70688;52.492;13.420;2023-08-01T06:33:45;6.00;;;3.70;;
81215;SDS011;70688;52.492;13.420;2023-08-01T06:36:10;8.40;;;4.00;;
81215;SDS011;70688;52.492;13.420;2023-08-01T06:38:36;7.28;;;4.72;;
81215;SDS011;70688;52.492;13.420;2023-08-01T06:41:01;8.20;;;4.30;;
81215;SDS011;70688;52.492;13.420;2023-08-01T06:43:28;7.75;;;5.00;;
81215;SDS011;70688;52.492;13.420;2023-08-01T06:45:53;6.85;;;4.18;;
81215;SDS011;70688;52.492;13.420;2023-08-01T06:48:19;7.22;;;4.15;;
81215;SDS011;70688;52.492;13.420;2023-08-01T06:50:44;7.20;;;4.40;;
81215;SDS011;70688;52.492;13.420;2023-08-01T06:53:10;7.05;;;4.70;;
81215;SDS011;70688;52.492;13.420;2023-08-01T06:55:36;8.13;;;4.25;;
81215;SDS011;70688;52.492;13.420;2023-08-01T06:58:01;7.35;;;3.90;;
81215;SDS011;70688;52.492;13.420;2023-08-01T07:00:27;6.25;;;3.92;;
81215;SDS011;70688;52.492;13.420;2023-08-01T07:02:52;8.38;;;4.65;;
81215;SDS011;70688;52.492;13.420;2023-08-01T07:05:18;7.18;;;3.83;;
81215;SDS011;70688;52.492;13.420;2023-08-01T07:07:44;10.25;;;3.95;;
81215;SDS011;70688;52.492;13.420;2023-08-01T07:10:10;7.40;;;4.00;;
81215;SDS011;70688;52.492;13.420;2023-08-01T07:12:36;9.05;;;3.83;;
81215;SDS011;70688;52.492;13.420;2023-08-01T07:15:02;9.60;;;4.13;;
81215;SDS011;70688;52.492;13.420;2023-08-01T07:17:27;7.45;;;4.40;;
81215;SDS011;70688;52.492;13.420;2023-08-01T07:19:53;7.25;;;3.58;;
81215;SDS011;70688;52.492;13.420;2023-08-01T07:22:19;6.95;;;4.25;;
81215;SDS011;70688;52.492;13.420;2023-08-01T07:24:45;7.28;;;4.22;;
81215;SDS011;70688;52.492;13.420;2023-08-01T07:27:11;9.25;;;4.57;;
81215;SDS011;70688;52.492;13.420;2023-08-01T07:29:37;6.28;;;3.75;;
81215;SDS011;70688;52.492;13.420;2023-08-01T07:32:03;6.50;;;3.80;;
81215;SDS011;70688;52.492;13.420;2023-08-01T07:34:29;6.65;;;3.70;;
81215;SDS011;70688;52.492;13.420;2023-08-01T07:36:54;9.13;;;3.63;;
81215;SDS011;70688;52.492;13.420;2023-08-01T07:39:20;7.47;;;4.32;;
81215;SDS011;70688;52.492;13.420;2023-08-01T07:41:45;8.43;;;4.05;;
81215;SDS011;70688;52.492;13.420;2023-08-01T07:44:11;6.32;;;3.75;;
81215;SDS011;70688;52.492;13.420;2023-08-01T07:46:37;4.80;;;3.60;;
81215;SDS011;70688;52.492;13.420;2023-08-01T07:49:02;7.03;;;4.38;;
81215;SDS011;70688;52.492;13.420;2023-08-01T07:51:28;6.65;;;3.58;;
81215;SDS011;70688;52.492;13.420;2023-08-01T07:53:54;5.07;;;2.92;;
81215;SDS011;70688;52.492;13.420;2023-08-01T07:56:20;7.38;;;3.78;;
81215;SDS011;70688;52.492;13.420;2023-08-01T07:58:46;6.53;;;3.28;;
81215;SDS011;70688;52.492;13.420;2023-08-01T08:01:12;5.03;;;3.15;;
81215;SDS011;70688;52.492;13.420;2023-08-01T08:03:37;5.65;;;3.17;;
81215;SDS011;70688;52.492;13.420;2023-08-01T08:06:03;5.18;;;2.90;;
81215;SDS011;70688;52.492;13.420;2023-08-01T08:08:30;4.97;;;3.03;;
81215;SDS011;70688;52.492;13.420;2023-08-01T08:10:58;5.40;;;3.30;;
81215;SDS011;70688;52.492;13.420;2023-08-01T08:13:24;6.75;;;3.72;;
81215;SDS011;70688;52.492;13.420;2023-08-01T08:15:50;5.35;;;2.97;;
81215;SDS011;70688;52.492;13.420;2023-08-01T08:18:16;5.25;;;3.00;;
81215;SDS011;70688;52.492;13.420;2023-08-01T08:20:44;6.22;;;5.55;;
81215;SDS011;70688;52.492;13.420;2023-08-01T08:23:10;7.13;;;3.10;;
81215;SDS011;70688;52.492;13.420;2023-08-01T08:25:39;5.13;;;3.15;;
81215;SDS011;70688;52.492;13.420;2023-08-01T08:28:05;4.85;;;2.72;;
81215;SDS011;70688;52.492;13.420;2023-08-01T08:30:30;3.92;;;2.78;;
81215;SDS011;70688;52.492;13.420;2023-08-01T08:32:57;6.68;;;3.63;;
81215;SDS011;70688;52.492;13.420;2023-08-01T08:35:23;4.50;;;2.78;;
81215;SDS011;70688;52.492;13.420;2023-08-01T08:37:49;5.18;;;3.10;;
81215;SDS011;70688;52.492;13.420;2023-08-01T08:40:14;4.95;;;2.72;;
81215;SDS011;70688;52.492;13.420;2023-08-01T08:42:40;4.97;;;3.10;;
81215;SDS011;70688;52.492;13.420;2023-08-01T08:47:35;3.60;;;2.70;;
81215;SDS011;70688;52.492;13.420;2023-08-01T08:50:03;6.00;;;3.20;;
81215;SDS011;70688;52.492;13.420;2023-08-01T08:54:56;6.13;;;3.10;;
81215;SDS011;70688;52.492;13.420;2023-08-01T08:57:22;4.80;;;3.00;;
81215;SDS011;70688;52.492;13.420;2023-08-01T08:59:48;7.72;;;3.38;;
81215;SDS011;70688;52.492;13.420;2023-08-01T09:02:15;4.32;;;3.30;;
81215;SDS011;70688;52.492;13.420;2023-08-01T09:04:42;4.53;;;2.70;;
81215;SDS011;70688;52.492;13.420;2023-08-01T09:07:08;6.40;;;4.22;;
81215;SDS011;70688;52.492;13.420;2023-08-01T09:09:36;3.00;;;2.30;;
81215;SDS011;70688;52.492;13.420;2023-08-01T09:12:02;4.05;;;2.88;;
81215;SDS011;70688;52.492;13.420;2023-08-01T09:14:28;3.20;;;2.40;;
81215;SDS011;70688;52.492;13.420;2023-08-01T09:16:54;3.10;;;2.20;;
81215;SDS011;70688;52.492;13.420;2023-08-01T09:19:21;2.47;;;2.05;;
81215;SDS011;70688;52.492;13.420;2023-08-01T09:21:48;3.20;;;2.10;;
81215;SDS011;70688;52.492;13.420;2023-08-01T09:24:19;3.65;;;2.47;;
81215;SDS011;70688;52.492;13.420;2023-08-01T09:26:46;2.70;;;1.90;;
81215;SDS011;70688;52.492;13.420;2023-08-01T09:29:15;2.28;;;1.63;;
81215;SDS011;70688;52.492;13.420;2023-08-01T09:31:42;4.00;;;2.15;;
81215;SDS011;70688;52.492;13.420;2023-08-01T09:34:21;2.55;;;1.90;;
81215;SDS011;70688;52.492;13.420;2023-08-01T09:36:48;3.30;;;1.85;;
81215;SDS011;70688;52.492;13.420;2023-08-01T09:39:16;2.83;;;1.70;;
81215;SDS011;70688;52.492;13.420;2023-08-01T09:41:42;2.33;;;1.73;;
81215;SDS011;70688;52.492;13.420;2023-08-01T09:44:15;2.53;;;1.80;;
81215;SDS011;70688;52.492;13.420;2023-08-01T09:46:41;3.20;;;2.10;;
81215;SDS011;70688;52.492;13.420;2023-08-01T09:49:12;2.47;;;2.03;;
81215;SDS011;70688;52.492;13.420;2023-08-01T09:51:48;2.22;;;1.75;;
81215;SDS011;70688;52.492;13.420;2023-08-01T09:54:15;2.40;;;1.65;;
81215;SDS011;70688;52.492;13.420;2023-08-01T09:56:43;3.22;;;1.70;;
81215;SDS011;70688;52.492;13.420;2023-08-01T09:59:10;4.00;;;2.10;;
81215;SDS011;70688;52.492;13.420;2023-08-01T10:01:36;5.85;;;1.80;;
81215;SDS011;70688;52.492;13.420;2023-08-01T10:06:31;4.40;;;2.65;;
81215;SDS011;70688;52.492;13.420;2023-08-01T10:08:59;2.97;;;1.77;;
81215;SDS011;70688;52.492;13.420;2023-08-01T10:11:25;2.47;;;1.80;;
81215;SDS011;70688;52.492;13.420;2023-08-01T10:13:52;3.17;;;1.60;;
81215;SDS011;70688;52.492;13.420;2023-08-01T10:16:18;3.22;;;2.20;;
81215;SDS011;70688;52.492;13.420;2023-08-01T10:18:45;3.55;;;1.50;;
81215;SDS011;70688;52.492;13.420;2023-08-01T10:21:11;2.78;;;1.77;;
81215;SDS011;70688;52.492;13.420;2023-08-01T10:23:39;2.63;;;1.77;;
81215;SDS011;70688;52.492;13.420;2023-08-01T10:26:07;7.38;;;4.68;;
81215;SDS011;70688;52.492;13.420;2023-08-01T10:28:34;2.55;;;1.63;;
81215;SDS011;70688;52.492;13.420;2023-08-01T10:31:08;1.70;;;1.35;;
81215;SDS011;70688;52.492;13.420;2023-08-01T10:33:35;1.95;;;1.50;;
81215;SDS011;70688;52.492;13.420;2023-08-01T10:36:11;2.88;;;1.70;;
81215;SDS011;70688;52.492;13.420;2023-08-01T10:38:47;5.45;;;2.25;;
81215;SDS011;70688;52.492;13.420;2023-08-01T10:44:06;2.90;;;1.95;;
81215;SDS011;70688;52.492;13.420;2023-08-01T10:49:15;3.38;;;1.48;;
81215;SDS011;70688;52.492;13.420;2023-08-01T10:51:42;4.35;;;2.03;;
81215;SDS011;70688;52.492;13.420;2023-08-01T10:54:20;4.78;;;2.10;;
81215;SDS011;70688;52.492;13.420;2023-08-01T10:56:50;4.93;;;3.10;;
81215;SDS011;70688;52.492;13.420;2023-08-01T10:59:21;3.67;;;2.10;;
81215;SDS011;70688;52.492;13.420;2023-08-01T11:01:48;4.00;;;2.13;;
81215;SDS011;70688;52.492;13.420;2023-08-01T11:04:16;3.10;;;1.70;;
81215;SDS011;70688;52.492;13.420;2023-08-01T11:09:31;4.22;;;2.97;;
81215;SDS011;70688;52.492;13.420;2023-08-01T11:11:57;4.32;;;2.20;;
81215;SDS011;70688;52.492;13.420;2023-08-01T11:14:27;5.60;;;1.70;;
81215;SDS011;70688;52.492;13.420;2023-08-01T11:16:54;3.63;;;1.83;;
81215;SDS011;70688;52.492;13.420;2023-08-01T11:19:22;5.15;;;2.42;;
81215;SDS011;70688;52.492;13.420;2023-08-01T11:21:49;4.25;;;2.20;;
81215;SDS011;70688;52.492;13.420;2023-08-01T11:26:43;3.60;;;2.38;;
81215;SDS011;70688;52.492;13.420;2023-08-01T11:29:10;4.22;;;2.65;;
81215;SDS011;70688;52.492;13.420;2023-08-01T11:31:37;3.43;;;2.40;;
81215;SDS011;70688;52.492;13.420;2023-08-01T11:34:03;3.83;;;2.40;;
81215;SDS011;70688;52.492;13.420;2023-08-01T11:36:29;4.13;;;2.42;;
81215;SDS011;70688;52.492;13.420;2023-08-01T11:38:57;7.35;;;2.58;;
81215;SDS011;70688;52.492;13.420;2023-08-01T11:41:24;6.07;;;3.17;;
81215;SDS011;70688;52.492;13.420;2023-08-01T11:43:53;3.78;;;2.60;;
81215;SDS011;70688;52.492;13.420;2023-08-01T11:46:22;5.50;;;3.95;;
81215;SDS011;70688;52.492;13.420;2023-08-01T11:48:48;5.32;;;3.08;;
81215;SDS011;70688;52.492;13.420;2023-08-01T11:51:16;7.10;;;3.28;;
81215;SDS011;70688;52.492;13.420;2023-08-01T11:53:42;4.82;;;3.47;;
81215;SDS011;70688;52.492;13.420;2023-08-01T11:56:08;6.00;;;3.53;;
81215;SDS011;70688;52.492;13.420;2023-08-01T11:58:44;6.05;;;3.78;;
81215;SDS011;70688;52.492;13.420;2023-08-01T12:01:10;9.50;;;4.10;;
81215;SDS011;70688;52.492;13.420;2023-08-01T12:03:53;8.18;;;4.15;;
81215;SDS011;70688;52.492;13.420;2023-08-01T12:06:20;4.70;;;3.55;;
81215;SDS011;70688;52.492;13.420;2023-08-01T12:11:17;8.60;;;4.70;;
81215;SDS011;70688;52.492;13.420;2023-08-01T12:13:46;9.27;;;4.30;;
81215;SDS011;70688;52.492;13.420;2023-08-01T12:16:13;7.30;;;4.43;;
81215;SDS011;70688;52.492;13.420;2023-08-01T12:18:42;8.80;;;4.53;;
81215;SDS011;70688;52.492;13.420;2023-08-01T12:21:09;9.57;;;4.75;;
81215;SDS011;70688;52.492;13.420;2023-08-01T12:23:35;6.35;;;4.22;;
81215;SDS011;70688;52.492;13.420;2023-08-01T12:26:01;7.00;;;4.10;;
81215;SDS011;70688;52.492;13.420;2023-08-01T12:28:27;9.77;;;4.40;;
81215;SDS011;70688;52.492;13.420;2023-08-01T12:30:52;7.47;;;3.97;;
81215;SDS011;70688;52.492;13.420;2023-08-01T12:33:18;6.47;;;4.15;;
81215;SDS011;70688;52.492;13.420;2023-08-01T12:35:44;6.72;;;4.35;;
81215;SDS011;70688;52.492;13.420;2023-08-01T12:38:09;8.25;;;4.50;;
81215;SDS011;70688;52.492;13.420;2023-08-01T12:40:35;10.48;;;4.50;;
81215;SDS011;70688;52.492;13.420;2023-08-01T12:43:00;8.57;;;4.90;;
81215;SDS011;70688;52.492;13.420;2023-08-01T12:45:26;5.78;;;4.10;;
81215;SDS011;70688;52.492;13.420;2023-08-01T12:47:52;5.53;;;3.80;;
81215;SDS011;70688;52.492;13.420;2023-08-01T12:50:17;7.10;;;4.00;;
81215;SDS011;70688;52.492;13.420;2023-08-01T12:52:43;7.15;;;4.63;;
81215;SDS011;70688;52.492;13.420;2023-08-01T12:55:08;9.43;;;4.70;;
81215;SDS011;70688;52.492;13.420;2023-08-01T12:57:34;9.93;;;4.95;;
81215;SDS011;70688;52.492;13.420;2023-08-01T13:00:00;9.55;;;4.35;;
81215;SDS011;70688;52.492;13.420;2023-08-01T13:02:26;7.72;;;4.47;;
81215;SDS011;70688;52.492;13.420;2023-08-01T13:04:52;7.75;;;4.90;;
81215;SDS011;70688;52.492;13.420;2023-08-01T13:07:17;9.88;;;5.00;;
81215;SDS011;70688;52.492;13.420;2023-08-01T13:09:43;11.23;;;4.93;;
81215;SDS011;70688;52.492;13.420;2023-08-01T13:12:09;7.40;;;4.43;;
81215;SDS011;70688;52.492;13.420;2023-08-01T13:14:34;9.80;;;4.03;;
81215;SDS011;70688;52.492;13.420;2023-08-01T13:17:00;10.48;;;6.53;;
81215;SDS011;70688;52.492;13.420;2023-08-01T13:19:25;7.75;;;4.90;;
81215;SDS011;70688;52.492;13.420;2023-08-01T13:21:51;6.28;;;4.38;;
81215;SDS011;70688;52.492;13.420;2023-08-01T13:24:17;10.48;;;4.75;;
81215;SDS011;70688;52.492;13.420;2023-08-01T13:26:42;7.93;;;4.10;;
81215;SDS011;70688;52.492;13.420;2023-08-01T13:29:08;6.75;;;4.05;;
81215;SDS011;70688;52.492;13.420;2023-08-01T13:31:33;7.32;;;4.28;;
81215;SDS011;70688;52.492;13.420;2023-08-01T13:33:59;10.40;;;5.13;;
81215;SDS011;70688;52.492;13.420;2023-08-01T13:36:25;10.98;;;4.45;;
81215;SDS011;70688;52.492;13.420;2023-08-01T13:38:51;9.88;;;6.10;;
81215;SDS011;70688;52.492;13.420;2023-08-01T13:41:16;8.20;;;4.30;;
81215;SDS011;70688;52.492;13.420;2023-08-01T13:43:42;6.82;;;4.20;;
81215;SDS011;70688;52.492;13.420;2023-08-01T13:46:17;9.80;;;4.40;;
81215;SDS011;70688;52.492;13.420;2023-08-01T13:48:44;5.65;;;3.85;;
81215;SDS011;70688;52.492;13.420;2023-08-01T13:51:11;8.32;;;4.60;;
81215;SDS011;70688;52.492;13.420;2023-08-01T13:53:38;9.30;;;4.25;;
81215;SDS011;70688;52.492;13.420;2023-08-01T13:56:14;12.20;;;4.90;;
81215;SDS011;70688;52.492;13.420;2023-08-01T13:58:40;7.05;;;3.78;;
81215;SDS011;70688;52.492;13.420;2023-08-01T14:01:07;6.22;;;4.30;;
81215;SDS011;70688;52.492;13.420;2023-08-01T14:06:05;6.32;;;4.18;;
81215;SDS011;70688;52.492;13.420;2023-08-01T14:08:35;8.82;;;4.05;;
81215;SDS011;70688;52.492;13.420;2023-08-01T14:11:01;8.27;;;4.40;;
81215;SDS011;70688;52.492;13.420;2023-08-01T14:15:53;12.73;;;5.15;;
81215;SDS011;70688;52.492;13.420;2023-08-01T14:18:19;6.72;;;3.92;;
81215;SDS011;70688;52.492;13.420;2023-08-01T14:20:45;8.02;;;4.45;;
81215;SDS011;70688;52.492;13.420;2023-08-01T14:23:10;7.03;;;4.00;;
81215;SDS011;70688;52.492;13.420;2023-08-01T14:25:36;7.10;;;4.00;;
81215;SDS011;70688;52.492;13.420;2023-08-01T14:28:01;6.10;;;3.50;;
81215;SDS011;70688;52.492;13.420;2023-08-01T14:30:27;5.32;;;3.90;;
81215;SDS011;70688;52.492;13.420;2023-08-01T14:32:58;7.32;;;3.72;;
81215;SDS011;70688;52.492;13.420;2023-08-01T14:35:25;11.30;;;4.38;;
81215;SDS011;70688;52.492;13.420;2023-08-01T14:37:51;6.97;;;3.75;;
81215;SDS011;70688;52.492;13.420;2023-08-01T14:40:17;7.65;;;4.03;;
81215;SDS011;70688;52.492;13.420;2023-08-01T14:42:43;10.02;;;5.13;;
81215;SDS011;70688;52.492;13.420;2023-08-01T14:45:08;9.05;;;3.85;;
81215;SDS011;70688;52.492;13.420;2023-08-01T14:47:34;9.20;;;5.45;;
81215;SDS011;70688;52.492;13.420;2023-08-01T14:50:02;6.03;;;3.28;;
81215;SDS011;70688;52.492;13.420;2023-08-01T14:52:29;4.32;;;3.30;;